Time;durP1;ratioP1;P1;durP2;ratioP2;P2;SDS_P1;SDS_P2;PMS_P1;PMS_P2;Temp;Humidity;BMP_temperature;BMP_pressure;BME280_temperature;BME280_humidity;BME280_pressure;Samples;Min_cycle;Max_cycle;Signal;HPM_P1;HPM_P2
2022/11/19 00:00:27;;;;;;;0.98;0.98;;;;;;;1.24;100.00;98773.34;6200841;28;20096;-74
2022/11/19 00:03:30;;;;;;;3.60;1.25;;;;;;;1.10;100.00;98765.41;6200967;28;20042;-76
2022/11/19 00:06:31;;;;;;;1.95;1.67;;;;;;;1.28;100.00;98774.06;6286255;28;20050;-75
2022/11/19 00:09:31;;;;;;;2.67;0.98;;;;;;;1.23;100.00;98773.41;6200921;28;20078;-76
2022/11/19 00:15:51;;;;;;;2.67;1.40;;;;;;;1.14;100.00;98790.88;6200671;28;20046;-74
2022/11/19 00:18:52;;;;;;;1.55;1.40;;;;;;;1.37;100.00;98796.78;6200628;28;20107;-74
2022/11/19 00:21:53;;;;;;;1.15;1.05;;;;;;;1.38;100.00;98811.28;6200718;28;20087;-75
2022/11/19 00:24:53;;;;;;;1.45;1.10;;;;;;;1.31;100.00;98818.41;6200621;28;20490;-75
2022/11/19 00:27:58;;;;;;;1.58;1.48;;;;;;;1.23;100.00;98830.75;6200570;28;20137;-76
2022/11/19 00:31:03;;;;;;;1.38;1.05;;;;;;;1.31;100.00;98843.28;6201712;28;20046;-76
2022/11/19 00:34:04;;;;;;;2.60;1.42;;;;;;;1.32;100.00;98850.94;6201467;28;20099;-74
2022/11/19 00:37:05;;;;;;;3.78;1.88;;;;;;;1.50;100.00;98851.06;6303182;28;20043;-76
2022/11/19 00:40:10;;;;;;;1.63;0.93;;;;;;;1.35;100.00;98853.38;6184129;28;20054;-76
2022/11/19 00:46:30;;;;;;;2.80;1.23;;;;;;;1.51;100.00;98857.88;6201522;28;20050;-76
2022/11/19 00:49:31;;;;;;;1.90;1.05;;;;;;;1.57;100.00;98861.00;6200183;28;20049;-76
2022/11/19 00:52:32;;;;;;;1.05;0.85;;;;;;;1.56;100.00;98864.47;6201311;28;20095;-73
2022/11/19 00:55:33;;;;;;;2.67;1.88;;;;;;;1.60;100.00;98868.56;6199968;28;20050;-75
2022/11/19 00:58:34;;;;;;;1.42;1.25;;;;;;;1.70;100.00;98875.91;6283084;28;20054;-73
2022/11/19 01:01:35;;;;;;;1.42;1.02;;;;;;;1.75;100.00;98882.53;6179812;28;20054;-73
2022/11/19 01:04:36;;;;;;;2.13;0.98;;;;;;;1.64;100.00;98886.47;6196393;28;20053;-73
2022/11/19 01:07:36;;;;;;;2.72;1.98;;;;;;;1.78;100.00;98887.53;6197096;28;20129;-73
2022/11/19 01:10:37;;;;;;;1.35;1.25;;;;;;;1.69;100.00;98892.22;6197141;28;20118;-73
2022/11/19 01:13:40;;;;;;;1.70;1.45;;;;;;;1.61;100.00;98900.28;6195773;28;20077;-77
2022/11/19 01:16:41;;;;;;;1.33;1.20;;;;;;;1.59;100.00;98905.50;6197017;28;20125;-75
2022/11/19 01:19:42;;;;;;;2.33;1.52;;;;;;;1.53;100.00;98910.06;6197005;28;20425;-75
2022/11/19 01:22:45;;;;;;;7.55;1.58;;;;;;;1.45;100.00;98896.69;6195695;28;20038;-75
2022/11/19 01:25:45;;;;;;;2.65;1.67;;;;;;;1.67;100.00;98912.03;6195622;28;20111;-76
2022/11/19 01:28:46;;;;;;;1.83;1.23;;;;;;;1.55;100.00;98915.97;6196856;28;20046;-74
2022/11/19 01:31:50;;;;;;;6.68;1.42;;;;;;;1.56;100.00;98913.31;6195628;28;20046;-74
2022/11/19 01:34:52;;;;;;;2.53;1.77;;;;;;;1.53;100.00;98928.06;6196740;28;20053;-74
2022/11/19 01:37:53;;;;;;;1.80;1.30;;;;;;;1.48;100.00;98946.22;6196694;28;20049;-74
2022/11/19 01:40:55;;;;;;;2.35;1.30;;;;;;;1.43;100.00;98955.06;6195424;28;20066;-74
2022/11/19 01:43:58;;;;;;;2.33;0.98;;;;;;;1.40;100.00;98964.56;6195318;28;20549;-74
2022/11/19 01:46:58;;;;;;;1.85;1.13;;;;;;;1.35;100.00;98970.78;6195312;28;20038;-75
2022/11/19 01:49:59;;;;;;;1.88;0.95;;;;;;;1.54;100.00;98976.00;6195324;28;20133;-76
2022/11/19 01:53:00;;;;;;;3.65;2.00;;;;;;;1.44;100.00;98979.84;6195118;28;20137;-76
2022/11/19 01:56:04;;;;;;;1.88;1.30;;;;;;;1.54;100.00;98991.41;6196098;28;20058;-76
2022/11/19 01:59:11;;;;;;;2.15;1.10;;;;;;;1.41;100.00;98989.34;6280301;28;20050;-74
2022/11/19 02:02:15;;;;;;;1.15;0.90;;;;;;;1.53;100.00;98998.31;6196092;28;20038;-74
2022/11/19 02:05:17;;;;;;;1.25;1.15;;;;;;;1.59;100.00;99002.38;6196037;28;20102;-74
2022/11/19 02:08:38;;;;;;;1.65;1.17;;;;;;;1.79;100.00;99014.38;6194786;28;20108;-74
2022/11/19 02:11:50;;;;;;;1.55;1.33;;;;;;;1.77;100.00;99021.31;6295790;28;20045;-73
2022/11/19 02:15:04;;;;;;;2.65;1.55;;;;;;;1.51;100.00;99030.13;6195789;28;20043;-74
2022/11/19 02:18:21;;;;;;;2.33;1.58;;;;;;;1.73;100.00;99025.78;6195838;28;20043;-74
2022/11/19 02:22:14;;;;;;;2.25;1.63;;;;;;;1.87;100.00;99035.47;6195735;28;20401;-71
2022/11/19 02:25:33;;;;;;;2.25;1.15;;;;;;;1.93;100.00;99049.84;6207769;28;20055;-74
2022/11/19 02:28:34;;;;;;;3.78;1.35;;;;;;;1.96;100.00;99055.69;6194410;28;20148;-73
2022/11/19 02:31:42;;;;;;;1.42;1.13;;;;;;;2.09;100.00;99057.75;6194368;28;20050;-71
2022/11/19 02:34:51;;;;;;;2.72;1.70;;;;;;;2.08;100.00;99053.50;6195429;28;20395;-73
2022/11/19 02:38:10;;;;;;;2.97;2.35;;;;;;;2.07;100.00;99068.09;6195699;28;20094;-71
2022/11/19 02:42:00;;;;;;;3.47;1.77;;;;;;;2.07;100.00;99070.69;6194118;28;20066;-71
2022/11/19 02:45:20;;;;;;;1.83;1.20;;;;;;;1.96;100.00;99089.16;6202472;28;20526;-71
2022/11/19 02:48:29;;;;;;;3.03;1.90;;;;;;;2.00;100.00;99103.56;6195335;28;20042;-72
2022/11/19 02:51:30;;;;;;;0.82;0.82;;;;;;;1.95;100.00;99117.50;6195097;28;20046;-72
2022/11/19 02:54:31;;;;;;;2.17;1.77;;;;;;;1.81;100.00;99130.91;6194065;28;20061;-74
2022/11/19 02:57:32;;;;;;;2.78;2.15;;;;;;;1.73;100.00;99138.94;6195160;28;20099;-72
2022/11/19 03:07:22;;;;;;;1.15;0.98;;;;;;;1.46;100.00;99147.72;6195810;28;20034;-73
2022/11/19 03:10:30;;;;;;;1.40;1.02;;;;;;;1.37;100.00;99165.16;6194455;28;20078;-73
2022/11/19 03:17:13;;;;;;;2.60;0.82;;;;;;;1.28;100.00;99190.38;6195754;28;20111;-73
2022/11/19 03:20:22;;;;;;;0.93;0.85;;;;;;;1.12;93.82;99190.09;6195610;28;20091;-73
2022/11/19 03:23:30;;;;;;;2.55;1.50;;;;;;;1.17;100.00;99195.91;6194956;28;20049;-73
2022/11/19 03:26:47;;;;;;;2.42;0.82;;;;;;;1.13;100.00;99199.47;6193428;28;20390;-73
2022/11/19 03:29:51;;;;;;;1.20;0.90;;;;;;;0.95;100.00;99214.66;6194898;28;20035;-73
2022/11/19 03:33:15;;;;;;;1.48;1.27;;;;;;;1.07;100.00;99231.38;6193363;28;20044;-72
2022/11/19 03:36:21;;;;;;;1.65;1.25;;;;;;;1.28;100.00;99227.19;6193021;28;20049;-73
2022/11/19 03:39:23;;;;;;;2.17;1.45;;;;;;;1.23;100.00;99241.09;6193279;28;20035;-73
2022/11/19 03:42:26;;;;;;;1.42;1.05;;;;;;;1.20;100.00;99237.75;6193315;28;20058;-75
2022/11/19 03:45:31;;;;;;;2.63;1.02;;;;;;;1.09;93.90;99241.59;6193161;28;20058;-75
2022/11/19 03:48:34;;;;;;;1.02;0.77;;;;;;;1.02;98.10;99246.09;6194881;28;20125;-74
2022/11/19 03:51:54;;;;;;;1.55;0.93;;;;;;;1.17;100.00;99245.59;6193156;28;20035;-76
2022/11/19 03:54:55;;;;;;;1.40;1.20;;;;;;;0.94;92.93;99255.81;6194154;28;20082;-75
2022/11/19 03:58:05;;;;;;;1.83;0.95;;;;;;;0.73;92.82;99265.09;6193035;28;20057;-75
2022/11/19 04:01:06;;;;;;;1.83;1.25;;;;;;;0.85;94.58;99258.69;6193219;28;20043;-75
2022/11/19 04:07:26;;;;;;;1.10;0.77;;;;;;;0.84;92.54;99257.84;6192915;28;20101;-72
2022/11/19 04:10:27;;;;;;;1.50;1.38;;;;;;;0.93;92.46;99260.13;6193810;28;20057;-73
2022/11/19 04:13:27;;;;;;;2.63;1.05;;;;;;;0.95;91.35;99271.16;6192582;28;20096;-74
2022/11/19 04:16:31;;;;;;;3.55;1.58;;;;;;;1.09;93.62;99267.28;6192595;28;20061;-73
2022/11/19 04:19:31;;;;;;;2.92;1.55;;;;;;;1.11;95.69;99265.50;6193742;28;20047;-73
2022/11/19 04:22:33;;;;;;;1.48;1.35;;;;;;;1.05;91.09;99268.28;6193874;28;20099;-75
2022/11/19 04:25:33;;;;;;;1.13;1.00;;;;;;;1.04;92.72;99258.91;6193928;28;20053;-75
2022/11/19 04:28:36;;;;;;;2.75;1.25;;;;;;;1.02;92.65;99256.38;6192873;28;20410;-75
2022/11/19 04:31:40;;;;;;;0.98;0.85;;;;;;;1.03;90.96;99267.50;6193918;28;20072;-75
2022/11/19 04:34:40;;;;;;;2.83;1.13;;;;;;;1.11;92.94;99268.91;6195437;28;20046;-75
2022/11/19 04:37:41;;;;;;;4.25;1.90;;;;;;;1.03;94.34;99264.91;6198113;28;20376;-75
2022/11/19 04:40:44;;;;;;;3.13;2.33;;;;;;;0.95;93.49;99266.03;6197011;28;20050;-73
2022/11/19 04:43:44;;;;;;;4.43;1.58;;;;;;;0.92;95.24;99263.56;6197753;28;20076;-73
2022/11/19 04:46:45;;;;;;;3.22;1.63;;;;;;;0.97;93.75;99278.84;6197859;28;20038;-75
2022/11/19 04:49:46;;;;;;;5.45;2.25;;;;;;;0.98;91.51;99273.63;6180473;28;20130;-75
2022/11/19 04:52:46;;;;;;;6.40;3.05;;;;;;;1.02;93.13;99279.50;6197763;28;20046;-75
2022/11/19 04:55:47;;;;;;;2.53;1.77;;;;;;;0.92;92.12;99299.53;6196450;28;20062;-75
2022/11/19 04:58:48;;;;;;;2.33;1.98;;;;;;;0.88;89.74;99290.25;6197461;28;20042;-72
2022/11/19 05:01:48;;;;;;;2.13;1.65;;;;;;;1.09;95.06;99310.97;6196125;28;20448;-72
2022/11/19 05:04:49;;;;;;;3.70;1.80;;;;;;;1.15;95.33;99313.31;6197063;28;20042;-72
2022/11/19 05:07:50;;;;;;;5.72;2.95;;;;;;;1.24;98.56;99325.03;6195930;28;20057;-73
2022/11/19 05:10:51;;;;;;;1.60;1.05;;;;;;;1.29;95.14;99326.53;6197037;28;20084;-72
2022/11/19 05:13:51;;;;;;;3.80;1.58;;;;;;;1.26;93.87;99324.09;6195663;28;20096;-70
2022/11/19 05:16:52;;;;;;;3.08;1.92;;;;;;;1.05;91.16;99342.78;6195730;28;20060;-72
2022/11/19 05:19:53;;;;;;;3.20;1.52;;;;;;;0.90;89.86;99369.81;6197011;28;20133;-75
2022/11/19 05:22:53;;;;;;;4.07;2.17;;;;;;;0.84;86.27;99382.84;6196127;28;20042;-72
2022/11/19 05:25:54;;;;;;;4.15;1.90;;;;;;;1.04;89.14;99395.91;6195710;28;20180;-72
2022/11/19 05:28:55;;;;;;;3.83;1.67;;;;;;;0.87;87.85;99400.75;6196847;28;20039;-73
2022/11/19 05:31:55;;;;;;;3.92;2.90;;;;;;;0.65;86.16;99398.00;6196614;28;20038;-73
2022/11/19 05:34:56;;;;;;;4.25;2.60;;;;;;;0.60;87.54;99405.88;6196558;28;20039;-73
2022/11/19 05:37:57;;;;;;;2.45;1.85;;;;;;;0.68;87.74;99414.16;6197054;28;20046;-75
2022/11/19 05:40:58;;;;;;;5.82;2.28;;;;;;;0.63;86.31;99417.75;6200680;28;20053;-75
2022/11/19 05:44:01;;;;;;;4.57;1.50;;;;;;;0.80;85.89;99423.19;6221856;28;20046;-75
2022/11/19 05:47:02;;;;;;;1.73;1.42;;;;;;;0.72;86.18;99430.31;6220806;28;20450;-75
2022/11/19 05:50:04;;;;;;;2.30;1.55;;;;;;;0.71;87.46;99449.19;6222569;28;20054;-75
2022/11/19 05:53:04;;;;;;;4.18;2.05;;;;;;;0.80;87.83;99457.44;6220778;28;20050;-75
2022/11/19 05:56:06;;;;;;;2.40;1.58;;;;;;;0.76;84.87;99453.28;6196894;28;20082;-74
2022/11/19 05:59:06;;;;;;;3.40;1.77;;;;;;;0.79;87.00;99454.94;6196282;28;20051;-75
2022/11/19 06:02:07;;;;;;;1.45;1.35;;;;;;;0.81;86.54;99468.56;6180724;28;20051;-72
2022/11/19 06:05:08;;;;;;;6.28;2.75;;;;;;;0.77;89.10;99478.06;6221132;28;20470;-72
2022/11/19 06:08:09;;;;;;;8.07;3.97;;;;;;;0.98;88.58;99486.03;6221093;28;20038;-72
2022/11/19 06:11:46;;;;;;;5.32;2.42;;;;;;;0.86;87.47;99479.53;6221470;28;20053;-74
2022/11/19 06:14:31;;;;;;;1.48;1.30;;;;;;;0.87;83.83;99485.53;6220953;28;20042;-72
2022/11/19 06:17:32;;;;;;;3.88;2.30;;;;;;;0.99;88.75;99487.72;6220829;28;20084;-72
2022/11/19 06:20:33;;;;;;;2.55;1.75;;;;;;;0.79;84.81;99504.56;6219396;28;20092;-72
2022/11/19 06:23:33;;;;;;;5.90;2.22;;;;;;;0.93;87.51;99516.16;6220857;28;20035;-72
2022/11/19 06:26:34;;;;;;;3.92;2.55;;;;;;;1.06;87.81;99521.75;6219384;28;20052;-72
2022/11/19 06:29:34;;;;;;;3.08;2.42;;;;;;;1.13;89.65;99510.38;6220826;28;20053;-72
2022/11/19 06:32:35;;;;;;;3.95;2.28;;;;;;;0.97;85.93;99513.44;6219595;28;20056;-72
2022/11/19 06:35:37;;;;;;;4.80;2.42;;;;;;;0.99;87.75;99518.53;6203588;28;20081;-74
2022/11/19 06:38:40;;;;;;;7.30;3.33;;;;;;;0.98;88.67;99534.81;6221178;28;20041;-72
2022/11/19 06:41:43;;;;;;;6.05;2.50;;;;;;;0.96;86.25;99527.16;6220695;28;20095;-70
2022/11/19 06:44:44;;;;;;;6.07;3.45;;;;;;;0.91;89.17;99531.63;6219971;28;20049;-72
2022/11/19 06:47:47;;;;;;;12.15;3.83;;;;;;;0.89;87.97;99529.97;6209513;28;20084;-72
2022/11/19 06:50:48;;;;;;;4.80;2.90;;;;;;;0.89;89.55;99528.25;6194017;28;20053;-72
2022/11/19 06:53:49;;;;;;;7.80;2.88;;;;;;;0.86;87.94;99530.06;6204157;28;20470;-72
2022/11/19 06:56:49;;;;;;;4.32;2.35;;;;;;;0.95;84.22;99532.38;6201934;28;20074;-72
2022/11/19 06:59:50;;;;;;;4.38;2.65;;;;;;;0.80;83.31;99533.63;6194138;28;20054;-74
2022/11/19 07:02:51;;;;;;;2.80;2.38;;;;;;;0.95;88.95;99538.34;6195421;28;20043;-74
2022/11/19 07:05:58;;;;;;;6.93;3.28;;;;;;;0.94;83.67;99556.34;6195272;28;20046;-74
2022/11/19 07:08:59;;;;;;;6.00;3.35;;;;;;;1.05;85.25;99559.47;6194303;28;20092;-74
2022/11/19 07:11:59;;;;;;;5.95;2.33;;;;;;;1.07;87.50;99570.53;6194251;28;20050;-74
2022/11/19 07:15:00;;;;;;;6.07;3.38;;;;;;;0.92;85.25;99563.28;6193874;28;20039;-74
2022/11/19 07:18:01;;;;;;;10.57;2.58;;;;;;;0.82;81.90;99579.84;6193940;28;20566;-74
2022/11/19 07:21:02;;;;;;;4.18;3.00;;;;;;;0.91;83.63;99580.41;6195165;28;20046;-74
2022/11/19 07:24:05;;;;;;;5.90;2.72;;;;;;;0.86;86.26;99586.56;6194850;28;20512;-72
2022/11/19 07:27:06;;;;;;;4.25;2.80;;;;;;;0.82;80.71;99590.09;6177003;28;20050;-72
2022/11/19 07:30:08;;;;;;;4.53;2.70;;;;;;;0.77;84.02;99583.38;6194580;28;20122;-74
2022/11/19 07:33:11;;;;;;;4.00;3.13;;;;;;;0.64;82.36;99584.63;6177440;28;20061;-74
2022/11/19 07:36:12;;;;;;;3.70;2.70;;;;;;;0.60;81.80;99596.69;6193462;28;20391;-74
2022/11/19 07:39:13;;;;;;;5.45;3.03;;;;;;;0.75;84.28;99610.00;6195928;28;20046;-74
2022/11/19 07:45:36;;;;;;;3.97;2.58;;;;;;;0.80;85.44;99621.84;6204960;28;20076;-74
2022/11/19 07:48:37;;;;;;;2.72;2.08;;;;;;;0.81;84.05;99602.13;6197400;28;20148;-74
2022/11/19 07:51:37;;;;;;;3.15;2.03;;;;;;;0.70;85.43;99588.72;6193195;28;20602;-74
2022/11/19 07:54:38;;;;;;;5.82;2.70;;;;;;;0.71;87.25;99587.84;6211843;28;20042;-74
2022/11/19 07:57:39;;;;;;;3.45;2.35;;;;;;;0.66;88.41;99616.22;6218675;28;20042;-74
2022/11/19 08:00:40;;;;;;;3.88;2.53;;;;;;;0.65;89.94;99623.97;6217385;28;20049;-74
2022/11/19 08:03:41;;;;;;;6.95;3.15;;;;;;;0.67;88.41;99633.31;6320381;27;20050;-74
2022/11/19 08:06:44;;;;;;;4.90;3.33;;;;;;;0.76;89.94;99624.50;6217476;28;20050;-74
2022/11/19 08:09:45;;;;;;;5.90;2.92;;;;;;;0.88;88.30;99624.16;6221813;28;20125;-74
2022/11/19 08:13:01;;;;;;;5.82;2.70;;;;;;;1.00;91.20;99617.84;6222828;28;20042;-74
2022/11/19 08:16:10;;;;;;;5.72;4.00;;;;;;;0.98;90.23;99635.84;6221654;28;20048;-74
2022/11/19 08:19:14;;;;;;;6.47;3.97;;;;;;;0.93;88.91;99632.59;6222871;28;20038;-74
2022/11/19 08:22:14;;;;;;;6.90;3.25;;;;;;;0.93;88.47;99629.19;6222701;28;20091;-74
2022/11/19 08:25:15;;;;;;;6.57;3.67;;;;;;;1.05;90.05;99608.28;6222510;28;20452;-74
2022/11/19 08:28:16;;;;;;;5.28;3.20;;;;;;;1.23;92.40;99598.34;6221254;28;20114;-74
2022/11/19 08:31:19;;;;;;;4.30;2.85;;;;;;;1.30;88.83;99587.00;6324878;27;20046;-74
2022/11/19 08:34:20;;;;;;;4.95;3.65;;;;;;;1.39;88.65;99613.25;6204871;28;20122;-74
2022/11/19 08:37:23;;;;;;;6.72;2.78;;;;;;;1.51;87.95;99634.34;6221272;28;20500;-74
2022/11/19 08:40:24;;;;;;;6.28;3.20;;;;;;;1.47;84.79;99637.91;6222394;28;20065;-75
2022/11/19 08:43:27;;;;;;;3.55;2.63;;;;;;;1.36;85.57;99636.50;6220950;28;20050;-75
2022/11/19 08:46:28;;;;;;;6.07;3.30;;;;;;;1.29;85.04;99647.81;6221078;28;20049;-75
2022/11/19 08:49:28;;;;;;;4.25;2.70;;;;;;;1.26;82.93;99652.25;6222580;28;20044;-75
2022/11/19 08:52:29;;;;;;;4.95;2.83;;;;;;;1.23;87.13;99666.00;6204727;28;20053;-75
2022/11/19 08:55:30;;;;;;;2.72;1.55;;;;;;;1.24;87.23;99659.97;6220698;28;20058;-75
2022/11/19 08:58:34;;;;;;;6.03;2.78;;;;;;;1.04;83.08;99664.84;6220760;28;20456;-75
2022/11/19 09:01:35;;;;;;;4.95;2.40;;;;;;;1.19;86.56;99680.69;6221979;28;20482;-75
2022/11/19 09:04:36;;;;;;;3.92;1.60;;;;;;;1.18;82.85;99685.88;6204455;28;20049;-75
2022/11/19 09:07:37;;;;;;;9.63;2.58;;;;;;;1.36;89.27;99674.19;6204355;28;20088;-75
2022/11/19 09:10:38;;;;;;;4.05;2.58;;;;;;;1.52;83.66;99674.59;6220649;28;20054;-75
2022/11/19 09:13:41;;;;;;;4.38;2.20;;;;;;;1.31;85.23;99676.91;6221799;28;20044;-75
2022/11/19 09:16:42;;;;;;;4.07;2.30;;;;;;;1.23;83.90;99686.56;6221660;28;20042;-75
2022/11/19 09:19:43;;;;;;;4.55;2.30;;;;;;;1.19;83.77;99696.09;6306021;28;20078;-75
2022/11/19 09:22:43;;;;;;;4.95;2.70;;;;;;;1.31;84.88;99687.19;6220499;28;20099;-75
2022/11/19 09:25:44;;;;;;;6.97;3.17;;;;;;;1.40;84.87;99697.22;6217802;28;20121;-75
2022/11/19 09:28:45;;;;;;;2.58;1.65;;;;;;;1.23;82.49;99694.28;6218651;28;20046;-75
2022/11/19 09:31:46;;;;;;;5.20;3.22;;;;;;;1.10;82.67;99704.06;6220926;28;20037;-72
2022/11/19 09:34:47;;;;;;;2.83;2.13;;;;;;;1.09;81.58;99699.81;6323290;27;20137;-72
2022/11/19 09:37:47;;;;;;;6.63;3.40;;;;;;;1.38;82.69;99705.84;6217431;28;20042;-72
2022/11/19 09:40:56;;;;;;;5.78;2.88;;;;;;;1.58;86.51;99703.53;6199833;28;20042;-72
2022/11/19 09:44:31;;;;;;;4.13;2.88;;;;;;;1.41;80.63;99686.03;6196727;28;20054;-72
2022/11/19 09:47:39;;;;;;;20.88;3.22;;;;;;;1.47;80.94;99685.00;6213163;28;20042;-73
2022/11/19 09:50:54;;;;;;;4.65;2.40;;;;;;;1.48;83.66;99678.13;6202814;28;20050;-72
2022/11/19 09:54:03;;;;;;;3.63;2.30;;;;;;;1.54;83.02;99685.66;6195155;28;20043;-72
2022/11/19 09:57:12;;;;;;;7.63;2.83;;;;;;;1.49;80.82;99695.25;6178615;28;20083;-74
2022/11/19 10:00:18;;;;;;;5.20;2.25;;;;;;;1.49;83.08;99669.53;6201887;28;20038;-72
2022/11/19 10:03:21;;;;;;;3.55;2.22;;;;;;;1.47;82.56;99671.31;6196735;28;20056;-72
2022/11/19 10:06:45;;;;;;;4.32;1.92;;;;;;;1.70;83.02;99673.19;6210440;28;20042;-73
2022/11/19 10:09:59;;;;;;;4.88;2.75;;;;;;;1.82;85.00;99672.81;6187337;28;20080;-73
2022/11/19 10:13:31;;;;;;;5.90;3.08;;;;;;;1.83;79.12;99682.19;6204702;28;20129;-73
2022/11/19 10:16:59;;;;;;;5.80;2.42;;;;;;;1.60;80.75;99685.47;6217426;28;20037;-73
2022/11/19 10:20:19;;;;;;;6.10;2.72;;;;;;;1.71;83.09;99692.88;6217743;28;20099;-72
2022/11/19 10:23:34;;;;;;;11.32;2.78;;;;;;;1.60;84.21;99691.47;6219370;28;20491;-73
2022/11/19 10:26:40;;;;;;;14.70;3.75;;;;;;;1.70;82.77;99701.50;6219233;28;20046;-72
2022/11/19 10:29:41;;;;;;;12.40;4.63;;;;;;;1.73;81.24;99694.53;6219266;28;20394;-72
2022/11/19 10:32:55;;;;;;;8.60;3.13;;;;;;;1.67;80.84;99699.84;6320507;27;20107;-73
2022/11/19 10:36:22;;;;;;;2.78;2.10;;;;;;;1.71;81.90;99690.28;6219468;28;20475;-74
2022/11/19 10:39:54;;;;;;;7.53;3.00;;;;;;;1.91;81.73;99687.94;6218334;28;20049;-73
2022/11/19 10:43:12;;;;;;;3.90;2.90;;;;;;;1.97;85.16;99697.22;6201848;28;20063;-72
2022/11/19 10:46:20;;;;;;;7.57;3.15;;;;;;;1.92;85.09;99694.78;6218069;28;20046;-71
2022/11/19 10:49:20;;;;;;;17.88;5.97;;;;;;;1.92;82.08;99692.22;6219313;28;20042;-73
2022/11/19 10:52:28;;;;;;;6.88;4.10;;;;;;;1.87;82.23;99685.53;6218106;28;20081;-72
2022/11/19 10:55:36;;;;;;;10.98;4.20;;;;;;;1.99;86.48;99693.69;6217792;28;20042;-73
2022/11/19 10:58:45;;;;;;;4.40;2.97;;;;;;;2.03;86.94;99680.75;6219151;28;20038;-72
2022/11/19 11:01:51;;;;;;;7.80;3.20;;;;;;;2.16;85.38;99685.47;6217941;28;20034;-72
2022/11/19 11:05:02;;;;;;;7.10;3.58;;;;;;;2.24;83.48;99692.09;6219110;28;20512;-73
2022/11/19 11:08:10;;;;;;;3.97;3.38;;;;;;;2.05;82.69;99702.97;6218085;28;20065;-73
2022/11/19 11:11:11;;;;;;;7.85;3.45;;;;;;;2.26;87.38;99714.31;6219023;28;20042;-72
2022/11/19 11:17:35;;;;;;;55.75;7.93;;;;;;;2.07;80.93;99703.75;6218746;28;20042;-72
2022/11/19 11:20:41;;;;;;;8.52;4.70;;;;;;;2.06;84.61;99717.53;6217677;28;20049;-72
2022/11/19 11:23:52;;;;;;;9.10;4.15;;;;;;;2.24;81.63;99715.25;6217492;28;20418;-72
2022/11/19 11:27:19;;;;;;;12.38;4.15;;;;;;;2.47;82.40;99720.50;6217436;28;20128;-72
2022/11/19 11:30:19;;;;;;;17.10;6.82;;;;;;;2.31;80.92;99722.75;6218511;28;20053;-72
2022/11/19 11:33:23;;;;;;;6.88;4.35;;;;;;;2.33;81.06;99733.81;6218615;28;20557;-72
2022/11/19 11:36:26;;;;;;;8.00;4.75;;;;;;;2.13;81.48;99755.03;6217214;28;20171;-72
2022/11/19 11:39:35;;;;;;;9.75;4.32;;;;;;;2.15;81.83;99766.13;6217350;28;20046;-72
2022/11/19 11:42:35;;;;;;;5.93;3.78;;;;;;;2.32;85.05;99769.91;6217869;28;20038;-73
2022/11/19 11:45:36;;;;;;;10.27;5.40;;;;;;;2.25;83.92;99763.28;6202211;28;20091;-73
2022/11/19 11:48:44;;;;;;;8.48;3.83;;;;;;;2.17;81.97;99764.34;6212836;28;20062;-72
2022/11/19 11:51:45;;;;;;;5.03;3.13;;;;;;;2.04;82.53;99760.50;6192943;28;20046;-72
2022/11/19 11:55:06;;;;;;;5.28;3.53;;;;;;;2.28;82.79;99758.88;6192701;28;20131;-72
2022/11/19 11:58:28;;;;;;;4.20;2.92;;;;;;;2.12;82.68;99762.81;6195342;28;20042;-73
2022/11/19 12:01:28;;;;;;;4.78;2.83;;;;;;;2.07;80.79;99782.72;6218772;28;20046;-72
2022/11/19 12:04:29;;;;;;;5.18;3.45;;;;;;;2.18;82.98;99788.34;6218239;28;20490;-73
2022/11/19 12:08:11;;;;;;;10.82;4.40;;;;;;;2.27;85.86;99775.22;6217018;28;20501;-73
2022/11/19 12:11:52;;;;;;;3.13;2.38;;;;;;;2.05;83.64;99779.34;6207470;28;20054;-72
2022/11/19 12:15:23;;;;;;;6.07;3.30;;;;;;;2.14;85.71;99781.63;6193697;28;20053;-72
2022/11/19 12:18:26;;;;;;;;;;;;;;;2.19;84.08;99780.59;6246400;28;20064;-73
2022/11/19 12:22:15;;;;;;;6.10;3.60;;;;;;;2.15;83.59;99778.16;6176571;28;19952;-75
2022/11/19 12:25:21;;;;;;;4.18;2.40;;;;;;;2.26;85.38;99773.50;6196504;28;20061;-75
2022/11/19 12:28:50;;;;;;;4.60;2.30;;;;;;;2.26;86.24;99788.97;6193096;28;20046;-73
2022/11/19 12:32:00;;;;;;;5.47;3.55;;;;;;;2.34;82.74;99775.84;6193691;28;20045;-72
2022/11/19 12:35:31;;;;;;;5.05;3.30;;;;;;;2.27;81.35;99777.78;6192225;28;20141;-72
2022/11/19 12:39:01;;;;;;;7.85;4.22;;;;;;;2.24;82.95;99790.75;6175995;28;20057;-72
2022/11/19 12:42:29;;;;;;;6.57;3.60;;;;;;;2.10;83.06;99796.34;6198644;28;20082;-73
2022/11/19 12:45:49;;;;;;;5.75;3.33;;;;;;;2.27;81.84;99800.13;6192297;28;20368;-72
2022/11/19 12:49:46;;;;;;;5.88;2.95;;;;;;;2.24;83.07;99797.63;6193415;28;20043;-73
2022/11/19 12:52:59;;;;;;;10.07;3.78;;;;;;;2.14;81.61;99797.94;6257568;28;20062;-73
2022/11/19 12:56:18;;;;;;;5.60;3.13;;;;;;;2.27;84.82;99787.25;6195007;28;20054;-71
2022/11/19 12:59:34;;;;;;;5.22;3.33;;;;;;;2.36;84.05;99787.78;6195876;28;20054;-71
2022/11/19 13:02:44;;;;;;;6.88;3.85;;;;;;;2.20;80.71;99789.16;6195995;28;20050;-71
2022/11/19 13:06:01;;;;;;;8.38;4.47;;;;;;;2.31;83.07;99789.69;6197273;28;20125;-71
2022/11/19 13:09:17;;;;;;;5.28;3.15;;;;;;;2.28;82.30;99809.53;6195806;28;20436;-71
2022/11/19 13:12:29;;;;;;;4.85;3.80;;;;;;;2.31;84.56;99810.28;6197138;28;20052;-71
2022/11/19 13:15:36;;;;;;;9.90;3.80;;;;;;;2.14;82.30;99815.09;6197038;28;20046;-71
2022/11/19 13:18:43;;;;;;;6.15;3.85;;;;;;;2.04;82.12;99809.38;6195774;28;20070;-71
2022/11/19 13:22:03;;;;;;;3.58;1.95;;;;;;;1.91;80.95;99811.47;6179764;28;20054;-71
2022/11/19 13:25:25;;;;;;;3.30;2.40;;;;;;;2.18;81.72;99808.94;6196101;28;20493;-73
2022/11/19 13:28:43;;;;;;;5.45;2.72;;;;;;;2.03;81.49;99809.44;6193461;28;20054;-73
2022/11/19 13:31:54;;;;;;;5.43;2.80;;;;;;;2.06;81.73;99812.75;6195585;28;20137;-71
2022/11/19 13:35:15;;;;;;;9.30;4.07;;;;;;;2.18;83.77;99809.81;6195679;28;20529;-71
2022/11/19 13:38:27;;;;;;;4.38;2.72;;;;;;;2.07;81.70;99808.44;6195269;28;20053;-71
2022/11/19 13:41:33;;;;;;;7.18;4.63;;;;;;;2.00;82.71;99806.06;6196624;28;20054;-71
2022/11/19 13:44:37;;;;;;;10.70;5.15;;;;;;;1.87;83.79;99827.03;6220411;28;20046;-73
2022/11/19 13:47:47;;;;;;;9.00;4.35;;;;;;;1.80;84.24;99827.22;6219522;28;20042;-71
2022/11/19 13:50:51;;;;;;;6.80;4.22;;;;;;;1.95;87.14;99831.06;6220817;28;20057;-71
2022/11/19 13:53:55;;;;;;;8.45;3.75;;;;;;;1.90;86.07;99826.97;6219150;28;20130;-70
2022/11/19 13:56:57;;;;;;;8.23;3.80;;;;;;;1.88;86.66;99826.16;6219265;28;20555;-70
2022/11/19 14:00:09;;;;;;;13.90;4.63;;;;;;;1.83;86.12;99820.28;6219339;28;20540;-71
2022/11/19 14:03:13;;;;;;;12.30;6.10;;;;;;;1.85;84.83;99831.38;6220725;28;20054;-71
2022/11/19 14:06:35;;;;;;;26.30;10.45;;;;;;;1.81;85.24;99846.94;6220307;28;20046;-70
2022/11/19 14:09:45;;;;;;;23.67;9.88;;;;;;;1.83;85.42;99870.00;6202668;28;20502;-72
2022/11/19 14:13:13;;;;;;;5.28;3.28;;;;;;;1.96;86.51;99879.09;6218526;28;20048;-72
2022/11/19 14:27:23;;;;;;;8.93;4.25;;;;;;;1.89;89.00;99899.88;6219178;28;20318;-73
2022/11/19 14:30:59;;;;;;;5.78;3.45;;;;;;;1.89;88.97;99894.72;6219012;28;20050;-75
2022/11/19 14:34:02;;;;;;;6.97;4.28;;;;;;;1.89;88.17;99899.88;6218674;28;20490;-73
2022/11/19 14:37:12;;;;;;;7.50;4.38;;;;;;;1.80;88.63;99886.38;6219834;28;20451;-74
2022/11/19 14:40:25;;;;;;;11.48;6.25;;;;;;;1.72;89.47;99890.06;6218477;28;20045;-72
2022/11/19 14:46:47;;;;;;;8.85;4.43;;;;;;;1.65;91.30;99880.81;6219645;28;20053;-74
2022/11/19 14:49:55;;;;;;;4.65;3.13;;;;;;;1.68;89.61;99880.75;6202311;28;20054;-74
2022/11/19 14:52:59;;;;;;;10.82;6.00;;;;;;;1.68;88.71;99871.28;6220019;28;20042;-75
2022/11/19 14:56:10;;;;;;;7.15;3.70;;;;;;;1.59;92.88;99863.84;6219462;28;20058;-73
2022/11/19 14:59:13;;;;;;;10.32;5.30;;;;;;;1.72;91.49;99856.63;6219369;28;20557;-72
2022/11/19 15:02:38;;;;;;;9.93;5.47;;;;;;;1.63;92.15;99851.72;6218411;28;20061;-72
2022/11/19 15:05:42;;;;;;;7.95;4.22;;;;;;;1.45;91.72;99858.22;6218122;28;20454;-72
2022/11/19 15:08:52;;;;;;;14.93;5.72;;;;;;;1.45;91.82;99859.06;6219186;28;20076;-70
2022/11/19 15:11:55;;;;;;;13.10;4.88;;;;;;;1.59;93.48;99850.97;6218293;28;20049;-72
2022/11/19 15:15:19;;;;;;;8.23;4.15;;;;;;;1.53;92.13;99846.00;6219517;28;20045;-73
2022/11/19 15:18:28;;;;;;;9.00;5.53;;;;;;;1.46;91.28;99844.47;6201196;28;20060;-74
2022/11/19 15:21:38;;;;;;;13.40;5.30;;;;;;;1.42;92.99;99843.69;6219410;28;20482;-75
2022/11/19 15:24:57;;;;;;;9.95;5.63;;;;;;;1.44;93.04;99851.38;6218192;28;20054;-75
2022/11/19 15:28:07;;;;;;;8.88;5.82;;;;;;;1.52;94.05;99855.41;6218177;28;20050;-75